Portada
METAR-TAF:

METAR-TAF

Aeroports :

Monte Cimone, Itàlia

latitud: 44-12N, longitud: 010-42E, altitud: 2165 m

Observació

L'informe es va fer fa 45 minuts, a les 21:55 UTC
Vent 5 kt del Oest
Temperatura 15°C
Humitat 44%
Pressió 1031 hPa

METAR: LIVC 182155Z AUTO 28005KT //// 15/03 Q1031

Hora: 00:40 (22:40 UTC)


TAF: manca

Observacions i pronòstics meteorològics de més de 4000 aeroports (METAR i TAF).

Les estacions disponibles són els punts grocs i vermells al mapa.

Posi el ratolí al punt desitjat per veure el nom de l'estació.

Feu clic per veure les observacions i els pronòstics meteorològics.

Per canviar el mapa: feu clic els botons verds amb una creu de color negre per apropar; al botó verd amb un guió per allunyar la imatge; o en les fletxes verdes per a mapes adjacents.


METAR-TAF: